createdAt,value
2018-06-04T00:01:08.711Z,0
2018-06-04T00:02:18.534Z,0
2018-06-04T00:03:28.618Z,0
2018-06-04T00:04:38.701Z,0
2018-06-04T00:05:48.828Z,0
2018-06-04T00:06:58.898Z,0
2018-06-04T00:08:08.995Z,0
2018-06-04T00:09:18.818Z,0
2018-06-04T00:10:28.632Z,0
2018-06-04T00:11:38.709Z,0
2018-06-04T00:12:48.777Z,0
2018-06-04T00:13:58.865Z,0
2018-06-04T00:15:08.687Z,0
2018-06-04T00:16:18.241Z,0
2018-06-04T00:17:28.373Z,0
2018-06-04T00:18:38.446Z,0
2018-06-04T00:19:48.263Z,0
2018-06-04T00:20:58.085Z,0
2018-06-04T00:22:08.167Z,0
2018-06-04T00:23:18.277Z,0
2018-06-04T00:24:28.086Z,0
2018-06-04T00:25:38.166Z,0
2018-06-04T00:26:48.251Z,0
2018-06-04T00:27:58.344Z,0
2018-06-04T00:29:08.445Z,0
2018-06-04T00:30:18.532Z,0
2018-06-04T00:31:28.620Z,0
2018-06-04T00:32:38.714Z,0
2018-06-04T00:33:48.546Z,0
2018-06-04T00:34:58.621Z,0
2018-06-04T00:36:08.445Z,0
2018-06-04T00:37:18.532Z,0
2018-06-04T00:38:28.608Z,0
2018-06-04T00:39:38.714Z,0
2018-06-04T00:40:48.533Z,0
2018-06-04T00:41:58.347Z,0
2018-06-04T00:43:08.159Z,0
2018-06-04T00:44:17.963Z,0
2018-06-04T00:45:28.039Z,0
2018-06-04T00:46:38.167Z,0
2018-06-04T00:47:48.239Z,0
2018-06-04T00:48:58.319Z,0
2018-06-04T00:50:08.427Z,0
2018-06-04T00:51:18.516Z,0
2018-06-04T00:52:28.571Z,0
2018-06-04T00:53:38.398Z,0
2018-06-04T00:54:48.474Z,0
2018-06-04T00:55:58.547Z,0
2018-06-04T00:57:08.647Z,0
2018-06-04T00:58:18.468Z,0
2018-06-04T00:59:28.282Z,0
2018-06-04T01:00:38.377Z,0
2018-06-04T01:01:48.455Z,0
2018-06-04T01:02:58.542Z,0
2018-06-04T01:04:08.092Z,0
2018-06-04T01:05:18.173Z,0
2018-06-04T01:06:28.251Z,0
2018-06-04T01:07:38.320Z,0
2018-06-04T01:08:48.388Z,0
2018-06-04T01:09:58.204Z,0
2018-06-04T01:11:08.521Z,0
2018-06-04T01:12:18.345Z,0
2018-06-04T01:13:28.444Z,0
2018-06-04T01:14:38.524Z,0
2018-06-04T01:15:48.614Z,0
2018-06-04T01:16:58.700Z,0
2018-06-04T01:18:08.507Z,0
2018-06-04T01:19:18.344Z,0
2018-06-04T01:20:28.424Z,0
2018-06-04T01:21:38.259Z,0
2018-06-04T01:22:48.079Z,0
2018-06-04T01:23:58.164Z,0
2018-06-04T01:25:08.256Z,0
2018-06-04T01:26:18.334Z,0
2018-06-04T01:27:28.424Z,0
2018-06-04T01:28:38.512Z,0
2018-06-04T01:29:48.585Z,0
2018-06-04T01:30:58.674Z,0
2018-06-04T01:32:08.769Z,0
2018-06-04T01:33:18.896Z,0
2018-06-04T01:34:28.713Z,0
2018-06-04T01:35:38.784Z,0
2018-06-04T01:36:48.859Z,0
2018-06-04T01:37:58.943Z,0
2018-06-04T01:39:08.997Z,0
2018-06-04T01:40:19.333Z,0
2018-06-04T01:41:29.133Z,0
2018-06-04T01:42:39.204Z,0
2018-06-04T01:43:49.288Z,0
2018-06-04T01:44:59.363Z,0
2018-06-04T01:46:09.496Z,0
2018-06-04T01:47:19.600Z,0
2018-06-04T01:48:29.682Z,0
2018-06-04T01:49:39.757Z,0
2018-06-04T01:50:49.880Z,0
2018-06-04T01:51:59.968Z,0
2018-06-04T01:53:09.522Z,0
2018-06-04T01:54:19.348Z,0
2018-06-04T01:55:29.427Z,0
2018-06-04T01:56:39.232Z,0
2018-06-04T01:57:49.309Z,0
2018-06-04T01:58:59.387Z,0
2018-06-04T02:00:09.462Z,0
2018-06-04T02:01:19.547Z,0
2018-06-04T02:02:29.683Z,0
2018-06-04T02:03:39.503Z,0
2018-06-04T02:04:49.599Z,0
2018-06-04T02:05:59.680Z,0
2018-06-04T02:07:09.760Z,0
2018-06-04T02:08:19.826Z,0
2018-06-04T02:09:29.920Z,0
2018-06-04T02:10:40.008Z,0
2018-06-04T02:11:50.088Z,0
2018-06-04T02:12:59.886Z,0
2018-06-04T02:14:09.952Z,0
2018-06-04T02:15:19.760Z,0
2018-06-04T02:16:29.844Z,0
2018-06-04T02:17:39.911Z,0
2018-06-04T02:18:49.990Z,4
2018-06-04T02:19:59.791Z,4
2018-06-04T02:21:09.862Z,0
2018-06-04T02:22:19.415Z,0
2018-06-04T02:23:29.252Z,4
2018-06-04T02:24:39.071Z,4
2018-06-04T02:25:49.160Z,0
2018-06-04T02:26:58.975Z,4
2018-06-04T02:28:08.808Z,4
2018-06-04T02:29:18.896Z,4
2018-06-04T02:30:28.988Z,4
2018-06-04T02:31:38.807Z,4
2018-06-04T02:32:48.892Z,4
2018-06-04T02:33:58.717Z,8
2018-06-04T02:35:08.824Z,8
2018-06-04T02:36:18.899Z,12
2018-06-04T02:37:28.730Z,12
2018-06-04T02:38:38.837Z,16
2018-06-04T02:39:48.656Z,20
2018-06-04T02:40:58.756Z,20
2018-06-04T02:42:08.844Z,24
2018-06-04T02:43:18.932Z,28
2018-06-04T02:44:29.030Z,32
2018-06-04T02:45:39.123Z,36
2018-06-04T02:46:49.203Z,40
2018-06-04T02:47:59.324Z,52
2018-06-04T02:49:09.465Z,56
2018-06-04T02:50:19.781Z,64
2018-06-04T02:51:29.879Z,72
2018-06-04T02:52:39.973Z,80
2018-06-04T02:53:50.073Z,88
2018-06-04T02:54:59.618Z,96
2018-06-04T02:56:09.746Z,108
2018-06-04T02:57:19.325Z,120
2018-06-04T02:58:29.757Z,128
2018-06-04T02:59:39.905Z,144
2018-06-04T03:00:49.988Z,152
2018-06-04T03:02:00.087Z,168
2018-06-04T03:03:10.190Z,184
2018-06-04T03:35:09.022Z,1260
2018-06-04T03:36:19.113Z,1304
2018-06-04T03:37:29.181Z,1348
2018-06-04T03:38:39.243Z,1396
2018-06-04T03:39:49.317Z,1448
2018-06-04T03:40:59.387Z,1508
2018-06-04T03:42:09.494Z,1580
2018-06-04T03:43:19.568Z,1644
2018-06-04T03:44:29.655Z,1712
2018-06-04T03:45:39.735Z,1768
2018-06-04T03:46:49.818Z,1840
2018-06-04T03:47:59.905Z,1904
2018-06-04T03:49:09.992Z,1952
2018-06-04T03:50:20.084Z,1988
2018-06-04T03:51:30.150Z,2016
2018-06-04T03:52:40.253Z,2048
2018-06-04T03:53:50.322Z,2080
2018-06-04T03:55:00.395Z,2100
2018-06-04T03:56:09.941Z,2132
2018-06-04T03:57:19.790Z,2176
2018-06-04T03:58:29.687Z,2232
2018-06-04T03:59:39.757Z,2284
2018-06-04T04:00:49.833Z,2340
2018-06-04T04:02:00.008Z,2392
2018-06-04T04:03:10.080Z,2452
2018-06-04T04:04:20.220Z,2512
2018-06-04T04:05:30.307Z,2576
2018-06-04T04:06:40.371Z,2652
2018-06-04T04:07:50.450Z,2728
2018-06-04T04:09:00.531Z,2804
2018-06-04T04:10:10.683Z,2872
2018-06-04T04:11:20.754Z,2944
2018-06-04T04:12:30.575Z,3012
2018-06-04T04:13:40.642Z,3092
2018-06-04T04:14:50.493Z,3168
2018-06-04T04:16:00.633Z,3244
2018-06-04T04:17:10.711Z,3328
2018-06-04T04:18:20.775Z,5576
2018-06-04T04:19:30.907Z,8428
2018-06-04T04:20:41.007Z,8892
2018-06-04T04:21:51.104Z,9084
2018-06-04T04:23:01.198Z,9160
2018-06-04T04:24:11.013Z,9396
2018-06-04T04:25:20.836Z,9784
2018-06-04T04:26:30.920Z,9932
2018-06-04T04:27:40.866Z,10116
2018-06-04T04:28:50.814Z,10140
2018-06-04T04:30:00.885Z,10232
2018-06-04T04:31:10.973Z,10212
2018-06-04T04:32:20.792Z,10384
2018-06-04T04:33:30.883Z,10280
2018-06-04T04:34:40.956Z,10204
2018-06-04T04:35:51.035Z,10064
2018-06-04T04:37:01.095Z,10120
2018-06-04T04:38:11.213Z,10360
2018-06-04T04:39:21.310Z,10408
2018-06-04T04:40:31.401Z,10488
2018-06-04T04:41:41.495Z,10748
2018-06-04T04:42:51.592Z,10552
2018-06-04T04:44:01.668Z,10596
2018-06-04T04:45:11.749Z,10568
2018-06-04T04:46:21.827Z,10160
2018-06-04T04:47:31.647Z,10160
2018-06-04T04:48:41.734Z,10320
2018-06-04T04:49:51.821Z,10416
2018-06-04T04:51:01.976Z,10328
2018-06-04T04:52:12.087Z,10300
2018-06-04T04:53:22.177Z,10176
2018-06-04T04:54:32.273Z,10168
2018-06-04T04:55:42.362Z,10284
2018-06-04T04:56:52.472Z,10292
2018-06-04T04:58:01.796Z,10040
2018-06-04T04:59:11.623Z,10012
2018-06-04T05:00:21.184Z,10028
2018-06-04T05:01:31.283Z,10092
2018-06-04T05:02:41.341Z,10060
2018-06-04T05:03:50.901Z,10036
2018-06-04T05:05:01.001Z,9884
2018-06-04T05:06:10.839Z,9812
2018-06-04T05:07:20.952Z,9816
2018-06-04T05:08:31.112Z,9676
2018-06-04T05:09:41.217Z,9436
2018-06-04T05:10:51.298Z,9176
2018-06-04T05:12:01.417Z,9268
2018-06-04T05:13:11.513Z,9264
2018-06-04T05:14:21.403Z,9284
2018-06-04T05:15:31.480Z,9396
2018-06-04T05:16:41.551Z,9452
2018-06-04T05:17:51.371Z,9364
2018-06-04T05:19:01.717Z,9356
2018-06-04T05:20:11.816Z,9268
2018-06-04T05:21:21.917Z,9260
2018-06-04T05:22:32.015Z,9328
2018-06-04T05:23:42.096Z,9488
2018-06-04T05:24:52.162Z,9516
2018-06-04T05:26:02.244Z,9456
2018-06-04T05:27:11.832Z,9528
2018-06-04T05:28:21.396Z,9428
2018-06-04T05:29:31.486Z,9456
2018-06-04T05:30:41.311Z,9400
2018-06-04T05:31:51.600Z,9520
2018-06-04T05:33:01.724Z,9592
2018-06-04T05:34:11.804Z,9616
2018-06-04T05:35:21.638Z,9568
2018-06-04T05:36:31.466Z,9600
2018-06-04T05:37:41.567Z,9568
2018-06-04T05:38:51.674Z,9524
2018-06-04T05:40:01.795Z,9652
2018-06-04T05:41:12.373Z,9656
2018-06-04T05:42:22.354Z,9736
2018-06-04T05:43:32.206Z,9724
2018-06-04T05:44:42.041Z,9548
2018-06-04T05:45:52.134Z,9404
2018-06-04T05:47:02.216Z,9340
2018-06-04T05:48:12.319Z,9384
2018-06-04T05:49:22.456Z,9556
2018-06-04T05:50:32.013Z,9508
2018-06-04T05:51:41.841Z,9484
2018-06-04T05:52:51.671Z,9436
2018-06-04T05:54:01.746Z,9492
2018-06-04T05:55:11.595Z,9680
2018-06-04T05:56:22.066Z,9788
2018-06-04T05:57:31.877Z,9772
2018-06-04T05:58:41.699Z,9700
2018-06-04T05:59:51.531Z,9616
2018-06-04T06:01:01.629Z,9740
2018-06-04T06:02:11.739Z,9832
2018-06-04T06:03:21.831Z,9924
2018-06-04T06:04:31.905Z,9956
2018-06-04T06:05:41.984Z,9784
2018-06-04T06:06:52.079Z,9652
2018-06-04T06:08:02.150Z,9588
2018-06-04T06:09:12.482Z,9532
2018-06-04T06:10:22.611Z,9468
2018-06-04T06:11:32.424Z,9524
2018-06-04T06:12:42.521Z,9424
2018-06-04T06:13:52.602Z,9352
2018-06-04T06:15:02.681Z,9348
2018-06-04T06:16:12.790Z,9320
2018-06-04T06:17:22.615Z,9264
2018-06-04T06:18:32.431Z,9224
2018-06-04T06:19:42.248Z,9256
2018-06-04T06:20:52.337Z,9208
2018-06-04T06:22:02.170Z,9128
2018-06-04T06:23:12.295Z,8984
2018-06-04T06:24:22.401Z,8908
2018-06-04T06:25:32.644Z,8832
2018-06-04T06:26:42.814Z,8768
2018-06-04T06:27:52.641Z,8672
2018-06-04T06:29:02.720Z,8676
2018-06-04T06:30:12.891Z,8644
2018-06-04T06:31:22.970Z,8592
2018-06-04T06:32:32.823Z,8560
2018-06-04T06:33:42.904Z,8444
2018-06-04T06:34:52.723Z,8372
2018-06-04T06:36:02.815Z,8324
2018-06-04T06:37:12.919Z,8244
2018-06-04T06:38:23.012Z,8176
2018-06-04T06:39:32.823Z,8096
2018-06-04T06:40:42.930Z,8004
2018-06-04T06:41:52.743Z,7888
2018-06-04T06:43:02.336Z,7812
2018-06-04T06:44:12.165Z,7712
2018-06-04T06:45:22.246Z,7600
2018-06-04T06:46:32.346Z,7496
2018-06-04T06:47:42.197Z,7380
2018-06-04T06:48:52.263Z,7280
2018-06-04T06:50:02.336Z,7168
2018-06-04T06:51:12.436Z,7036
2018-06-04T06:52:22.522Z,6928
2018-06-04T06:53:32.361Z,6828
2018-06-04T06:54:42.448Z,6752
2018-06-04T06:55:52.542Z,6656
2018-06-04T06:57:02.374Z,6540
2018-06-04T06:58:12.458Z,6476
2018-06-04T06:59:22.555Z,6392
2018-06-04T07:00:32.668Z,6296
2018-06-04T07:01:42.502Z,6212
2018-06-04T07:02:52.334Z,6160
2018-06-04T07:04:02.178Z,6100
2018-06-04T07:05:12.268Z,6044
2018-06-04T07:06:22.365Z,5972
2018-06-04T07:07:32.578Z,5908
2018-06-04T07:08:42.713Z,5672
2018-06-04T07:09:52.796Z,5320
2018-06-04T07:11:02.659Z,5112
2018-06-04T07:12:12.490Z,5036
2018-06-04T07:13:22.586Z,5012
2018-06-04T07:14:32.341Z,4996
2018-06-04T07:15:42.514Z,4988
2018-06-04T07:16:52.609Z,4984
2018-06-04T07:18:02.447Z,4976
2018-06-04T07:19:12.544Z,4976
2018-06-04T07:20:22.384Z,4964
2018-06-04T07:21:32.174Z,5016
2018-06-04T07:22:42.278Z,4960
2018-06-04T07:23:52.367Z,4952
2018-06-04T07:25:02.176Z,4952
2018-06-04T07:26:12.248Z,4964
2018-06-04T07:27:22.338Z,4980
2018-06-04T07:28:32.466Z,4988
2018-06-04T07:29:42.276Z,4976
2018-06-04T07:30:52.354Z,4976
2018-06-04T07:32:02.443Z,4992
2018-06-04T07:33:12.552Z,5008
2018-06-04T07:34:22.640Z,5016
2018-06-04T07:35:32.726Z,5004
2018-06-04T07:36:42.562Z,5012
2018-06-04T07:37:52.663Z,5000
2018-06-04T07:39:02.770Z,4988
2018-06-04T07:40:12.584Z,4972
2018-06-04T07:41:22.945Z,4984
2018-06-04T07:42:33.071Z,5000
2018-06-04T07:43:42.887Z,4992
2018-06-04T07:44:52.977Z,4988
2018-06-04T07:46:03.119Z,5004
2018-06-04T07:47:12.933Z,4996
2018-06-04T07:48:23.074Z,5016
2018-06-04T07:49:32.902Z,5036
2018-06-04T07:50:42.990Z,5044
2018-06-04T07:51:53.177Z,5044
2018-06-04T07:53:03.273Z,5036
2018-06-04T07:54:13.091Z,5032
2018-06-04T07:55:23.192Z,5056
2018-06-04T07:56:33.290Z,5064
2018-06-04T07:57:43.426Z,5076
2018-06-04T07:58:53.244Z,5080
2018-06-04T08:00:03.326Z,5124
2018-06-04T08:01:13.416Z,5120
2018-06-04T08:02:23.507Z,5140
2018-06-04T08:03:33.597Z,5140
2018-06-04T08:04:43.691Z,5180
2018-06-04T08:05:53.532Z,5268
2018-06-04T08:07:03.618Z,5256
2018-06-04T08:08:13.697Z,5268
2018-06-04T08:09:23.779Z,5256
2018-06-04T08:10:33.874Z,5264
2018-06-04T08:11:43.971Z,5304
2018-06-04T08:12:54.078Z,5332
2018-06-04T08:14:04.168Z,5316
2018-06-04T08:15:14.265Z,5336
2018-06-04T08:16:24.347Z,5324
2018-06-04T08:17:34.444Z,5360
2018-06-04T08:18:44.272Z,5376
2018-06-04T08:19:54.361Z,5396
2018-06-04T08:21:04.445Z,5220
2018-06-04T08:22:14.286Z,5372
2018-06-04T08:23:24.108Z,5448
2018-06-04T08:24:34.203Z,5588
2018-06-04T08:25:44.303Z,5616
2018-06-04T08:26:54.408Z,5640
2018-06-04T08:28:04.243Z,5608
2018-06-04T08:29:14.366Z,5552
2018-06-04T08:30:24.258Z,5548
2018-06-04T08:31:33.836Z,5568
2018-06-04T08:32:43.947Z,5688
2018-06-04T08:33:53.782Z,5796
2018-06-04T08:35:03.872Z,5840
2018-06-04T08:36:14.058Z,5844
2018-06-04T08:37:24.144Z,4556
2018-06-04T08:38:34.449Z,4028
2018-06-04T08:39:44.537Z,4052
2018-06-04T08:40:54.616Z,4200
2018-06-04T08:42:04.464Z,4376
2018-06-04T08:43:14.553Z,6612
2018-06-04T08:44:24.369Z,6676
2018-06-04T08:45:34.528Z,6696
2018-06-04T08:46:44.672Z,6716
2018-06-04T08:47:54.804Z,6664
2018-06-04T08:49:04.888Z,6660
2018-06-04T08:50:14.714Z,6724
2018-06-04T08:51:24.589Z,6752
2018-06-04T08:52:34.406Z,6784
2018-06-04T08:53:44.511Z,6932
2018-06-04T08:54:54.335Z,6364
2018-06-04T08:56:04.429Z,5268
2018-06-04T08:57:14.269Z,7280
2018-06-04T08:58:24.360Z,6868
2018-06-04T08:59:34.199Z,7224
2018-06-04T09:00:44.316Z,6500
2018-06-04T09:01:54.164Z,6452
2018-06-04T09:03:04.271Z,6856
2018-06-04T09:04:14.377Z,4936
2018-06-04T09:05:24.198Z,4928
2018-06-04T09:06:34.290Z,6648
2018-06-04T09:07:44.106Z,6756
2018-06-04T09:08:54.219Z,6700
2018-06-04T09:10:04.382Z,6760
2018-06-04T09:11:14.473Z,6816
2018-06-04T09:12:24.038Z,6748
2018-06-04T09:13:34.118Z,6640
2018-06-04T09:14:44.209Z,6696
2018-06-04T09:15:54.530Z,6540
2018-06-04T09:17:04.376Z,6556
2018-06-04T09:18:14.464Z,6672
2018-06-04T09:19:24.577Z,6752
2018-06-04T09:20:34.712Z,6808
2018-06-04T09:21:44.925Z,6804
2018-06-04T09:22:55.103Z,6808
2018-06-04T09:24:05.187Z,6860
2018-06-04T09:25:15.006Z,6792
2018-06-04T09:26:25.085Z,6816
2018-06-04T09:27:35.164Z,6920
2018-06-04T09:28:44.993Z,6856
2018-06-04T09:29:55.072Z,6752
2018-06-04T09:31:05.143Z,6756
2018-06-04T09:32:15.303Z,6820
2018-06-04T09:33:25.463Z,6792
2018-06-04T09:34:34.808Z,6600
2018-06-04T09:35:44.906Z,4396
2018-06-04T09:36:54.729Z,6876
2018-06-04T09:38:04.559Z,6936
2018-06-04T09:39:14.661Z,5640
2018-06-04T09:40:24.529Z,4280
2018-06-04T09:41:34.644Z,5060
2018-06-04T09:42:44.761Z,7036
2018-06-04T09:43:54.612Z,7156
2018-06-04T09:45:04.739Z,7160
2018-06-04T09:46:14.874Z,7164
2018-06-04T09:47:24.760Z,7064
2018-06-04T09:48:34.935Z,6960
2018-06-04T09:49:45.039Z,6984
2018-06-04T09:50:55.139Z,6820
2018-06-04T09:52:05.010Z,6848
2018-06-04T09:53:15.105Z,6792
2018-06-04T09:54:25.234Z,3940
2018-06-04T09:55:35.070Z,3844
2018-06-04T09:56:44.914Z,3824
2018-06-04T09:57:54.752Z,3872
2018-06-04T09:59:04.879Z,3852
2018-06-04T10:00:14.709Z,4000
2018-06-04T10:01:24.830Z,4300
2018-06-04T10:02:34.925Z,4476
2018-06-04T10:03:44.800Z,6492
2018-06-04T10:04:55.015Z,7556
2018-06-04T10:06:05.105Z,7632
2018-06-04T10:07:15.472Z,7640
2018-06-04T10:08:30.055Z,7504
2018-06-04T10:09:42.922Z,7360
2018-06-04T10:11:02.012Z,7176
2018-06-04T10:12:24.506Z,7160
2018-06-04T10:13:46.555Z,7100
2018-06-04T10:15:06.761Z,7024
2018-06-04T10:16:27.337Z,6984
2018-06-04T10:17:46.171Z,4164
2018-06-04T10:19:05.277Z,3980
2018-06-04T10:20:25.736Z,6896
2018-06-04T10:21:43.396Z,4400
2018-06-04T10:23:01.136Z,4008
2018-06-04T10:24:17.826Z,6812
2018-06-04T10:25:34.410Z,6684
2018-06-04T10:26:50.808Z,6612
2018-06-04T10:28:07.523Z,4408
2018-06-04T10:29:20.499Z,4360
2018-06-04T10:30:31.521Z,4308
2018-06-04T10:31:41.582Z,4272
2018-06-04T10:32:51.440Z,4424
2018-06-04T10:34:02.012Z,4572
2018-06-04T10:35:12.125Z,4680
2018-06-04T10:36:22.210Z,7080
2018-06-04T10:37:32.319Z,6984
2018-06-04T10:38:42.153Z,7016
2018-06-04T10:39:52.007Z,7016
2018-06-04T10:41:02.119Z,7024
2018-06-04T10:42:12.215Z,7100
2018-06-04T10:43:22.359Z,7056
2018-06-04T10:44:36.713Z,7008
2018-06-04T10:45:54.809Z,6956
2018-06-04T10:47:09.352Z,7040
2018-06-04T10:48:22.866Z,7124
2018-06-04T10:49:37.051Z,7172
2018-06-04T10:50:50.848Z,7152
2018-06-04T10:52:04.298Z,7312
2018-06-04T10:53:17.361Z,7520
2018-06-04T10:54:29.935Z,7616
2018-06-04T10:55:43.462Z,7644
2018-06-04T10:56:56.311Z,7792
2018-06-04T10:58:09.785Z,6216
2018-06-04T10:59:21.088Z,8048
2018-06-04T11:00:30.911Z,8240
2018-06-04T11:01:41.051Z,8428
2018-06-04T11:02:51.134Z,7688
2018-06-04T11:04:01.248Z,8148
2018-06-04T11:05:11.348Z,7812
2018-06-04T11:06:21.474Z,4608
2018-06-04T11:07:31.565Z,5488
2018-06-04T11:08:41.659Z,7180
2018-06-04T11:09:51.741Z,7232
2018-06-04T11:11:01.565Z,7072
2018-06-04T11:12:11.653Z,6080
2018-06-04T11:13:21.599Z,6960
2018-06-04T11:14:31.904Z,7064
2018-06-04T11:15:42.051Z,7072
2018-06-04T11:16:51.886Z,7120
2018-06-04T11:18:01.981Z,7096
2018-06-04T11:19:26.754Z,7284
2018-06-04T11:20:36.860Z,4712
2018-06-04T11:21:46.990Z,7352
2018-06-04T11:22:56.822Z,7380
2018-06-04T11:24:06.663Z,7528
2018-06-04T11:25:16.750Z,7384
2018-06-04T11:26:26.848Z,5016
2018-06-04T11:27:36.970Z,4740
2018-06-04T11:28:47.074Z,4212
2018-06-04T11:29:57.161Z,4164
2018-06-04T11:31:07.300Z,4088
2018-06-04T11:32:17.419Z,4028
2018-06-04T11:33:27.005Z,4064
2018-06-04T11:34:37.115Z,4136
2018-06-04T11:35:47.238Z,4176
2018-06-04T11:36:57.361Z,4168
2018-06-04T11:38:07.444Z,4152
2018-06-04T11:39:17.546Z,4144
2018-06-04T11:40:27.650Z,4148
2018-06-04T11:41:37.767Z,4092
2018-06-04T11:42:47.856Z,4120
2018-06-04T11:43:58.135Z,4148
2018-06-04T11:45:08.378Z,3956
2018-06-04T11:46:18.459Z,4088
2018-06-04T11:47:28.580Z,3832
2018-06-04T11:48:38.735Z,3748
2018-06-04T11:49:48.830Z,3740
2018-06-04T11:50:58.945Z,3772
2018-06-04T11:52:09.043Z,7244
2018-06-04T11:53:18.886Z,6396
2018-06-04T11:54:28.999Z,3872
2018-06-04T11:55:38.891Z,5052
2018-06-04T11:56:49.427Z,3876
2018-06-04T11:57:59.536Z,5568
2018-06-04T11:59:09.609Z,3876
2018-06-04T12:00:19.712Z,3772
2018-06-04T12:01:29.798Z,3756
2018-06-04T12:02:39.892Z,3788
2018-06-04T12:03:49.720Z,4004
2018-06-04T12:04:59.542Z,4352
2018-06-04T12:06:09.653Z,7804
2018-06-04T12:07:19.730Z,7684
2018-06-04T12:08:30.052Z,7628
2018-06-04T12:09:39.878Z,7616
2018-06-04T12:10:49.691Z,7684
2018-06-04T12:11:59.828Z,7728
2018-06-04T12:13:09.927Z,7832
2018-06-04T12:14:20.020Z,7872
2018-06-04T12:15:30.113Z,7852
2018-06-04T12:16:39.933Z,7868
2018-06-04T12:17:50.074Z,7756
2018-06-04T12:18:59.907Z,7728
2018-06-04T12:20:11.382Z,7792
2018-06-04T12:21:22.189Z,5632
2018-06-04T12:22:32.842Z,4348
2018-06-04T12:23:43.206Z,7748
2018-06-04T12:24:53.608Z,7584
2018-06-04T12:26:03.423Z,7616
2018-06-04T12:27:13.451Z,7704
2018-06-04T12:28:23.630Z,7776
2018-06-04T12:29:33.525Z,7788
2018-06-04T12:30:43.610Z,7844
2018-06-04T12:31:53.728Z,5356
2018-06-04T12:33:03.813Z,7784
2018-06-04T12:34:13.910Z,4328
2018-06-04T12:35:24.008Z,4256
2018-06-04T12:36:34.111Z,4248
2018-06-04T12:37:44.232Z,4380
2018-06-04T12:38:54.566Z,4484
2018-06-04T12:40:04.661Z,4612
2018-06-04T12:41:14.755Z,4740
2018-06-04T12:42:24.876Z,4824
2018-06-04T12:43:34.749Z,4660
2018-06-04T12:44:44.590Z,4556
2018-06-04T12:45:54.701Z,4404
2018-06-04T12:47:04.815Z,4408
2018-06-04T12:48:15.056Z,4464
2018-06-04T12:49:24.879Z,4620
2018-06-04T12:50:35.006Z,4836
2018-06-04T12:51:45.102Z,4976
2018-06-04T12:52:54.917Z,5136
2018-06-04T12:54:05.015Z,5344
2018-06-04T12:55:15.100Z,8148
2018-06-04T12:56:25.194Z,7796
2018-06-04T12:57:35.310Z,7652
2018-06-04T12:58:45.406Z,7772
2018-06-04T12:59:55.500Z,7616
2018-06-04T13:01:05.585Z,7644
2018-06-04T13:02:15.423Z,7668
2018-06-04T13:03:25.518Z,7700
2018-06-04T13:04:35.876Z,7624
2018-06-04T13:05:46.093Z,7600
2018-06-04T13:06:56.184Z,7712
2018-06-04T13:08:06.049Z,7676
2018-06-04T13:09:16.156Z,7680
2018-06-04T13:10:26.430Z,7576
2018-06-04T13:11:36.640Z,7452
2018-06-04T13:12:46.489Z,7384
2018-06-04T13:13:56.579Z,7496
2018-06-04T13:15:06.680Z,7592
2018-06-04T13:16:16.797Z,7552
2018-06-04T13:17:26.903Z,7428
2018-06-04T13:18:36.717Z,7316
2018-06-04T13:19:46.812Z,7232
2018-06-04T13:20:56.917Z,7092
2018-06-04T13:22:07.076Z,6968
2018-06-04T13:23:17.163Z,6736
2018-06-04T13:24:27.261Z,6624
2018-06-04T13:25:37.102Z,6648
2018-06-04T13:26:46.914Z,6708
2018-06-04T13:27:57.000Z,6548
2018-06-04T13:29:07.102Z,6208
2018-06-04T13:30:16.933Z,4656
2018-06-04T13:31:27.009Z,6268
2018-06-04T13:32:37.113Z,5752
2018-06-04T13:33:47.313Z,3960
2018-06-04T13:34:57.408Z,4100
2018-06-04T13:36:07.490Z,4544
2018-06-04T13:37:17.588Z,6044
2018-06-04T13:38:27.673Z,5772
2018-06-04T13:39:37.948Z,4320
2018-06-04T13:40:47.930Z,4184
2018-06-04T13:41:58.036Z,4004
2018-06-04T13:43:08.148Z,4140
2018-06-04T13:44:18.237Z,3736
2018-06-04T13:45:27.811Z,4048
2018-06-04T13:46:37.632Z,4392
2018-06-04T13:47:47.956Z,4220
2018-06-04T13:48:58.050Z,4160
2018-06-04T13:50:08.138Z,4396
2018-06-04T13:51:18.227Z,4964
2018-06-04T13:52:28.042Z,5076
2018-06-04T13:53:38.154Z,5192
2018-06-04T13:54:48.235Z,5920
2018-06-04T13:55:58.051Z,6388
2018-06-04T13:57:08.160Z,6344
2018-06-04T13:58:18.265Z,6304
2018-06-04T13:59:28.371Z,6604
2018-06-04T14:00:38.214Z,6380
2018-06-04T14:01:48.320Z,6224
2018-06-04T14:02:58.192Z,6164
2018-06-04T14:04:07.765Z,5928
2018-06-04T14:05:17.854Z,5660
2018-06-04T14:06:27.963Z,5468
2018-06-04T14:07:38.055Z,5444
2018-06-04T14:08:48.235Z,5168
2018-06-04T14:09:58.392Z,4696
2018-06-04T14:11:08.253Z,3780
2018-06-04T14:12:18.103Z,5140
2018-06-04T14:13:27.947Z,5500
2018-06-04T14:14:37.862Z,5252
2018-06-04T14:15:47.947Z,5356
2018-06-04T14:16:58.034Z,3840
2018-06-04T14:18:07.859Z,3780
2018-06-04T14:19:17.955Z,3948
2018-06-04T14:20:27.788Z,4180
2018-06-04T14:21:37.869Z,4248
2018-06-04T14:22:47.961Z,4384
2018-06-04T14:23:58.101Z,4408
2018-06-04T14:25:07.944Z,5272
2018-06-04T14:26:17.786Z,4132
2018-06-04T14:27:27.967Z,3716
2018-06-04T14:28:38.136Z,3796
2018-06-04T14:29:48.237Z,4300
2018-06-04T14:30:57.793Z,3596
2018-06-04T14:32:07.956Z,4304
2018-06-04T14:33:18.078Z,4592
2018-06-04T14:34:28.179Z,4632
2018-06-04T14:35:38.278Z,4560
2018-06-04T14:36:48.135Z,4604
2018-06-04T14:37:58.233Z,4536
2018-06-04T14:39:07.885Z,4808
2018-06-04T14:40:18.148Z,4148
2018-06-04T14:41:28.283Z,4112
2018-06-04T14:42:38.388Z,4092
2018-06-04T14:43:48.472Z,4032
2018-06-04T14:44:58.543Z,4032
2018-06-04T14:46:08.647Z,4080
2018-06-04T14:47:18.742Z,4620
2018-06-04T14:48:28.848Z,4692
2018-06-04T14:49:39.235Z,4572
2018-06-04T14:50:49.347Z,4472
2018-06-04T14:51:59.434Z,4468
2018-06-04T14:53:09.561Z,4452
2018-06-04T14:54:19.660Z,3920
2018-06-04T14:55:29.761Z,3800
2018-06-04T14:56:39.795Z,3896
2018-06-04T14:57:49.710Z,3848
2018-06-04T14:58:59.550Z,4000
2018-06-04T15:00:09.672Z,4140
2018-06-04T15:01:19.546Z,4164
2018-06-04T15:02:29.380Z,3872
2018-06-04T15:03:39.468Z,4232
2018-06-04T15:04:49.577Z,4104
2018-06-04T15:05:59.654Z,4160
2018-06-04T15:07:09.487Z,4212
2018-06-04T15:08:19.597Z,4276
2018-06-04T15:09:29.725Z,4276
2018-06-04T15:10:39.563Z,4200
2018-06-04T15:11:49.398Z,4164
2018-06-04T15:12:59.503Z,4116
2018-06-04T15:14:09.625Z,4032
2018-06-04T15:15:19.695Z,4024
2018-06-04T15:16:29.788Z,3992
2018-06-04T15:17:40.113Z,3996
2018-06-04T15:18:50.201Z,4008
2018-06-04T15:20:00.291Z,3980
2018-06-04T15:21:10.360Z,4000
2018-06-04T15:22:20.440Z,3988
2018-06-04T15:23:30.521Z,3980
2018-06-04T15:24:40.356Z,3988
2018-06-04T15:25:50.448Z,4044
2018-06-04T15:27:00.537Z,4040
2018-06-04T15:28:10.665Z,4104
2018-06-04T15:29:20.232Z,4068
2018-06-04T15:30:30.343Z,4100
2018-06-04T15:31:40.484Z,4104
2018-06-04T15:32:50.579Z,4080
2018-06-04T15:34:00.673Z,4096
2018-06-04T15:35:10.806Z,4108
2018-06-04T15:36:20.888Z,4156
2018-06-04T15:37:30.990Z,4292
2018-06-04T15:38:41.162Z,4312
2018-06-04T15:39:51.251Z,4248
2018-06-04T15:41:01.369Z,4084
2018-06-04T15:42:11.472Z,3940
2018-06-04T15:43:21.571Z,3884
2018-06-04T15:44:31.423Z,3880
2018-06-04T15:45:41.762Z,3780
2018-06-04T15:46:51.325Z,3748
2018-06-04T15:48:01.155Z,3740
2018-06-04T15:49:11.473Z,3800
2018-06-04T15:50:21.756Z,3932
2018-06-04T15:51:31.947Z,3968
2018-06-04T15:52:42.055Z,3948
2018-06-04T15:53:52.179Z,4012
2018-06-04T15:55:02.036Z,4120
2018-06-04T15:56:11.880Z,4100
2018-06-04T15:57:21.966Z,4024
2018-06-04T15:58:31.528Z,4004
2018-06-04T15:59:41.676Z,3980
2018-06-04T16:00:51.751Z,4024
2018-06-04T16:02:01.832Z,3924
2018-06-04T16:03:12.086Z,3816
2018-06-04T16:04:22.177Z,3688
2018-06-04T16:05:32.109Z,3700
2018-06-04T16:06:41.941Z,3632
2018-06-04T16:07:52.022Z,3544
2018-06-04T16:09:02.183Z,3544
2018-06-04T16:10:12.580Z,3552
2018-06-04T16:11:22.439Z,3516
2018-06-04T16:12:32.799Z,3496
2018-06-04T16:13:42.373Z,3504
2018-06-04T16:14:52.581Z,3488
2018-06-04T16:16:02.467Z,3480
2018-06-04T16:17:12.574Z,3480
2018-06-04T16:18:22.659Z,3508
2018-06-04T16:19:32.760Z,3528
2018-06-04T16:20:42.852Z,3512
2018-06-04T16:21:52.932Z,3528
2018-06-04T16:23:03.056Z,3552